Date,TemperatureHighF,TemperatureAvgF,TemperatureLowF,DewpointHighF,DewpointAvgF,DewpointLowF,HumidityHigh,HumidityAvg,HumidityLow,PressureMaxIn,PressureMinIn,WindSpeedMaxMPH,WindSpeedAvgMPH,GustSpeedMaxMPH,PrecipitationSumIn
2013-1-1,52.1,42.9,35.6,36.7,32.2,26.6,90,68,44,30.27,30.19,9,1,15,0.00
2013-1-2,55.2,41.7,32.4,32.1,28.1,20.9,82,60,26,30.24,30.13,8,1,12,0.00
2013-1-3,56.7,44.2,31.4,37.3,32.5,25.4,83,65,38,30.24,30.16,9,1,12,0.00
2013-1-4,51.1,47.9,37.7,36.8,35.9,33.0,84,64,52,30.22,30.17,4,0,6,0.00
2013-1-5,49.2,43.0,36.0,43.2,38.9,32.2,90,86,76,30.25,30.05,8,0,13,0.52
2013-1-6,54.3,45.3,39.4,44.4,40.3,36.4,92,83,60,30.18,30.05,9,1,15,0.82
2013-1-7,55.7,45.1,37.2,46.8,41.0,34.5,91,86,71,30.25,30.14,3,0,5,0.01
2013-1-8,56.4,46.0,39.0,45.1,40.8,36.6,91,83,63,30.24,30.11,5,0,8,0.00
2013-1-9,54.9,45.4,39.9,47.6,39.5,33.6,91,80,67,30.14,29.97,12,2,21,0.01
2013-1-10,51.1,43.5,36.0,35.0,32.6,29.3,89,66,50,30.19,30.06,9,2,17,0.00
2013-1-11,53.2,44.3,37.6,37.7,32.8,28.3,79,64,53,30.24,30.11,9,2,17,0.00
2013-1-12,49.4,39.4,29.8,35.6,29.1,20.2,84,69,33,30.24,30.12,5,1,8,0.00
2013-1-13,48.8,36.9,27.7,31.5,26.3,18.0,86,68,37,30.26,30.16,4,0,7,0.00
2013-1-14,50.1,38.5,28.7,28.5,22.9,15.0,80,56,30,30.39,30.22,8,1,12,0.00
2013-1-15,50.4,38.8,30.5,35.5,28.4,25.2,88,69,38,30.48,30.38,9,1,13,0.00
2013-1-16,55.2,41.2,31.6,33.9,29.7,27.0,89,66,37,30.43,30.25,10,2,15,0.00
2013-1-17,60.6,44.9,33.9,35.1,31.4,28.6,83,62,35,30.26,30.14,8,2,13,0.00
2013-1-18,62.0,46.4,36.0,36.9,32.3,29.8,82,61,32,30.23,30.12,9,2,12,0.00
2013-1-19,60.8,46.2,35.5,36.6,31.5,28.1,77,59,35,30.25,30.14,10,1,16,0.00
2013-1-20,61.6,46.7,36.2,34.7,30.4,26.9,78,56,29,30.22,30.12,8,1,12,0.00
2013-1-21,61.9,46.3,34.9,38.2,32.9,27.6,81,62,34,30.17,30.08,9,2,12,0.00
2013-1-22,60.2,48.3,39.0,39.8,36.6,32.6,80,66,43,30.11,29.99,8,2,13,0.00
2013-1-23,51.5,48.4,46.7,46.4,43.0,39.6,90,82,71,30.08,29.94,6,0,7,0.34
2013-1-24,57.6,51.6,47.6,49.9,47.2,44.8,91,85,72,30.17,30.05,6,1,9,0.02
2013-1-25,64.1,55.2,48.3,52.3,48.9,45.5,91,80,64,30.17,30.02,6,1,9,0.00
2013-1-26,58.5,51.2,45.8,47.3,41.3,35.8,88,70,47,30.06,29.97,9,2,20,0.00
2013-1-27,57.4,47.5,40.4,38.7,35.7,31.9,76,64,42,30.16,30.05,9,2,18,0.00
2013-1-28,58.9,48.9,42.4,40.8,37.8,32.9,77,66,49,30.27,30.15,8,2,16,0.00
2013-1-29,62.0,49.9,42.1,42.9,38.2,33.9,83,66,39,30.34,30.24,8,1,12,0.00
2013-1-30,64.3,49.2,38.4,45.7,40.3,35.4,90,74,45,30.33,30.23,6,0,7,0.00
2013-1-31,64.0,49.1,39.4,44.1,40.5,36.3,89,74,47,30.28,30.16,9,1,13,0.00
2013-2-1,63.9,50.1,39.9,44.8,40.5,36.6,89,72,46,30.20,30.10,10,1,14,0.01
2013-2-2,59.5,48.0,40.9,46.9,42.0,37.6,89,80,61,30.29,30.19,6,0,9,0.00
2013-2-3,59.4,49.0,42.1,45.8,40.9,35.6,88,74,57,30.24,30.12,6,1,12,0.00
2013-2-4,56.1,45.5,40.3,46.9,41.5,37.3,91,86,71,30.17,30.05,3,0,5,0.01
2013-2-5,58.7,49.2,41.4,45.7,41.1,36.0,89,74,61,30.14,30.05,10,1,18,0.00
2013-2-6,59.4,46.9,36.5,43.6,38.2,33.1,88,73,49,30.18,30.10,7,1,14,0.00
2013-2-7,55.6,46.9,37.3,45.4,39.6,33.9,89,77,50,30.15,29.98,10,1,17,0.24
2013-2-8,55.7,44.5,35.2,41.5,35.5,25.9,90,72,43,30.01,29.92,7,1,12,0.05
2013-2-9,58.5,44.7,34.2,37.2,31.1,23.8,80,61,30,30.08,29.98,7,1,10,0.00
2013-2-10,59.6,43.7,32.0,41.6,34.0,27.8,87,71,39,30.12,30.00,5,0,7,0.00
2013-2-11,64.1,48.4,36.5,42.1,33.0,26.6,82,59,27,30.22,30.06,11,1,15,0.00
2013-2-12,61.4,45.5,33.5,42.2,35.6,30.3,89,71,39,30.35,30.22,5,0,8,0.00
2013-2-13,61.8,46.2,34.0,46.4,38.9,30.8,91,77,49,30.33,30.18,5,0,8,0.00
2013-2-14,68.8,53.5,44.6,45.9,41.2,38.2,87,65,35,30.24,30.13,6,0,9,0.01
2013-2-15,69.9,53.5,41.2,44.0,38.8,33.7,88,62,30,30.26,30.18,8,1,12,0.00
2013-2-16,68.0,53.6,42.9,44.2,40.2,37.1,82,63,38,30.22,30.03,8,1,12,0.00
2013-2-17,61.8,49.0,39.0,46.7,40.3,35.7,89,73,49,30.04,29.94,8,1,10,0.00
2013-2-18,54.9,45.1,36.9,40.6,36.7,33.6,89,73,54,30.02,29.94,9,1,16,0.01
2013-2-19,49.7,43.3,38.3,40.7,35.7,30.1,88,75,59,29.95,29.73,11,2,21,0.37
2013-2-20,59.0,46.9,36.5,38.3,34.1,29.4,77,62,41,30.04,29.84,9,2,20,0.00
2013-2-21,62.3,48.8,40.3,36.2,33.8,29.6,79,58,32,30.15,30.03,11,1,14,0.00
2013-2-22,64.7,48.7,36.0,45.2,37.5,32.4,87,68,32,30.24,30.15,9,1,20,0.00
2013-2-23,59.2,50.4,45.0,44.4,35.9,27.3,81,59,39,30.24,30.14,12,2,20,0.00
2013-2-24,62.6,50.0,39.8,33.9,24.4,20.8,77,38,24,30.24,30.18,12,2,16,0.00
2013-2-25,64.1,48.7,36.9,44.3,37.1,32.0,87,66,45,30.26,30.14,10,1,12,0.00
2013-2-26,67.4,49.8,34.9,38.5,32.5,23.9,86,56,22,30.21,30.10,8,1,10,0.00
2013-2-27,65.4,50.6,35.7,44.5,37.8,31.3,85,64,37,30.34,30.19,6,1,9,0.00
2013-2-28,68.5,54.6,45.8,51.0,46.0,41.5,89,74,49,30.42,30.34,8,1,12,0.00
2013-3-1,71.4,55.1,42.3,52.0,44.7,39.3,95,71,38,30.42,30.21,5,0,8,0.00
2013-3-2,69.8,56.2,46.8,50.7,46.5,42.4,87,71,49,30.22,30.03,6,1,8,0.00
2013-3-3,67.7,53.7,43.6,47.4,44.0,39.6,86,71,42,30.07,29.99,10,1,20,0.00
2013-3-4,58.6,47.6,39.4,44.7,40.6,35.3,87,77,58,30.14,30.04,9,1,12,0.00
2013-3-5,51.7,45.6,35.7,43.6,38.7,32.2,89,77,66,30.06,29.81,27,8,48,0.33
2013-3-6,54.1,49.0,39.8,46.3,40.3,35.7,86,72,56,30.04,29.81,28,5,41,0.29
2013-3-7,54.5,46.3,38.4,43.4,38.9,34.8,89,77,53,29.98,29.84,6,1,9,0.01
2013-3-8,60.4,49.3,42.0,41.4,38.7,35.1,84,68,44,30.02,29.82,11,2,21,0.01
2013-3-9,68.3,51.3,38.6,43.2,38.6,34.8,87,64,35,30.28,30.03,9,1,13,0.00
2013-3-10,68.0,51.5,38.5,46.0,38.8,33.2,92,65,31,30.34,30.21,9,1,12,0.00
2013-3-11,70.9,52.7,37.9,46.0,40.3,34.1,87,66,33,30.24,30.07,7,1,10,0.00
2013-3-12,73.2,53.9,41.8,51.6,45.1,38.5,95,75,37,30.15,30.04,4,0,8,0.00
2013-3-13,77.0,57.3,41.9,52.2,46.4,38.8,90,70,40,30.14,30.03,8,1,12,0.00
2013-3-14,71.5,55.9,45.7,53.1,45.1,34.7,89,70,28,30.14,30.07,6,1,10,0.00
2013-3-15,71.6,54.1,43.0,51.2,44.1,38.2,85,70,43,30.11,30.01,8,1,16,0.00
2013-3-16,73.9,55.6,43.6,50.6,42.8,37.6,91,66,32,30.10,29.99,10,2,25,0.01
2013-3-17,66.6,55.6,46.3,43.6,39.5,35.9,76,56,40,30.13,30.02,10,2,15,0.00
2013-3-18,64.5,52.3,39.9,47.8,41.4,35.7,87,68,48,30.10,30.00,6,1,8,0.00
2013-3-19,64.6,52.1,44.4,48.5,42.3,32.9,85,70,42,30.12,30.04,10,0,14,0.05
2013-3-20,61.5,51.9,46.6,52.4,46.3,40.0,88,82,60,30.12,30.05,16,3,26,0.19
2013-3-21,63.6,51.7,41.8,44.1,39.7,36.4,82,65,43,30.11,29.99,10,2,16,0.00
2013-3-22,69.9,53.0,38.9,39.1,33.1,20.4,82,53,18,30.10,30.00,11,2,16,0.00
2013-3-23,65.7,51.8,38.4,41.0,34.6,26.5,79,56,24,30.13,30.02,7,1,12,0.00
2013-3-24,67.4,52.4,39.7,46.6,40.8,35.8,89,67,43,30.08,29.94,9,1,13,0.00
2013-3-25,61.6,49.4,38.9,45.3,40.3,35.4,92,72,53,30.00,29.92,9,2,15,0.00
2013-3-26,63.8,52.0,42.0,48.3,42.9,37.6,86,72,56,29.98,29.90,7,1,10,0.00
2013-3-27,56.6,51.5,46.1,50.4,46.0,40.3,86,82,75,30.00,29.93,10,1,13,0.00
2013-3-28,67.0,55.7,49.9,52.1,48.8,45.9,89,79,51,30.07,29.98,9,2,12,0.00
2013-3-29,74.5,58.5,44.5,52.0,47.3,41.5,90,69,44,30.07,29.98,10,2,15,0.00
2013-3-30,65.7,56.1,51.3,50.9,48.1,44.3,86,75,47,30.05,29.95,20,4,30,0.22
2013-3-31,61.7,55.1,52.1,54.2,50.0,48.4,89,83,65,30.05,29.98,13,3,21,0.22
2013-4-1,66.7,55.7,48.2,52.3,48.6,43.3,90,78,53,30.13,30.02,10,2,16,0.25
2013-4-2,66.8,54.1,44.2,53.5,46.8,41.2,90,77,59,30.17,30.06,7,1,12,0.01
2013-4-3,73.5,54.3,44.5,52.9,46.1,41.5,91,76,39,30.12,29.95,10,1,16,0.00
2013-4-4,55.6,53.0,49.6,52.1,49.4,43.8,91,88,76,30.10,29.97,20,3,31,1.77
2013-4-5,63.3,55.2,49.5,52.4,49.2,45.6,91,81,61,30.17,30.09,11,1,15,0.01
2013-4-6,65.5,55.0,49.5,56.1,49.6,46.3,92,83,61,30.17,30.10,13,3,18,0.01
2013-4-7,64.9,54.8,49.3,54.3,48.8,44.8,94,81,60,30.16,29.82,12,2,26,0.12
2013-4-8,66.5,53.9,46.1,44.8,40.0,35.2,84,61,41,30.01,29.78,16,4,32,0.01
2013-4-9,75.3,61.6,49.3,45.5,40.3,34.8,67,47,30,30.08,30.00,12,3,20,0.00
2013-4-10,84.6,65.8,53.4,57.1,49.2,42.9,73,56,37,30.15,30.01,10,2,23,0.00
2013-4-11,74.7,59.4,49.1,51.4,46.4,43.3,82,64,38,30.03,29.81,10,2,26,0.00
2013-4-12,75.5,56.2,43.0,54.0,45.9,40.8,94,71,43,29.90,29.80,9,1,14,0.00
2013-4-13,68.9,55.4,43.7,49.5,42.9,38.1,90,65,45,29.88,29.80,10,2,21,0.00
2013-4-14,70.6,54.5,41.9,46.5,39.8,35.0,84,60,32,29.91,29.84,12,2,24,0.00
2013-4-15,59.1,49.9,44.0,46.1,38.7,33.5,85,67,47,29.94,29.83,14,3,30,0.00
2013-4-16,68.0,54.3,44.7,40.5,35.7,31.5,72,51,29,30.14,29.94,10,2,17,0.00
2013-4-17,70.7,58.6,49.5,39.6,34.9,30.5,65,42,25,30.25,30.14,14,2,20,0.00
2013-4-18,75.1,59.6,45.0,45.7,40.3,35.2,70,51,29,30.24,30.15,11,1,16,0.00
2013-4-19,78.6,60.7,44.2,54.6,46.2,40.4,87,61,37,30.21,30.04,8,1,15,0.00
2013-4-20,78.3,63.4,49.8,53.2,46.0,42.6,78,55,32,30.09,29.95,11,1,14,0.00
2013-4-21,82.6,63.2,45.8,54.5,48.5,42.4,89,63,32,30.02,29.89,5,0,10,0.00
2013-4-22,87.7,66.5,50.3,55.2,48.8,44.6,82,58,25,29.94,29.81,9,0,14,0.00
2013-4-23,78.6,61.9,47.4,52.5,42.9,30.8,85,55,21,29.92,29.84,9,1,13,0.00
2013-4-24,59.9,51.4,42.3,48.5,45.1,39.9,92,80,65,29.93,29.83,16,3,25,0.00
2013-4-25,64.8,53.7,46.1,51.1,47.4,43.3,91,80,60,30.12,29.92,11,2,15,0.00
2013-4-26,69.3,53.8,44.3,53.8,46.9,42.2,94,79,57,30.21,30.11,5,0,8,0.00
2013-4-27,79.8,56.4,42.3,55.9,47.1,40.4,94,74,37,30.22,30.04,4,0,7,0.00
2013-4-28,86.0,62.3,40.5,60.1,49.6,38.9,95,68,32,30.05,29.85,6,0,9,0.01
2013-4-29,88.0,67.9,51.5,59.3,52.3,45.3,91,62,32,29.88,29.73,10,2,20,0.02
2013-4-30,83.3,64.9,49.3,55.3,46.9,29.8,84,56,27,29.83,29.76,10,1,13,0.00
2013-5-1,84.1,69.0,54.2,50.5,37.2,16.2,73,35,15,30.06,29.82,11,2,16,0.00
2013-5-2,89.3,69.6,48.4,47.3,39.7,32.1,75,39,18,30.13,30.04,9,1,12,0.00
2013-5-3,87.9,67.8,50.2,52.0,44.8,37.1,67,46,23,30.05,29.76,7,1,12,0.00
2013-5-4,81.9,60.9,49.7,53.4,48.0,43.6,86,66,31,29.76,29.54,24,5,43,0.00
2013-5-5,61.4,56.3,53.1,51.7,49.0,47.7,83,77,67,29.79,29.58,21,9,38,0.00
2013-5-6,67.6,59.8,51.1,53.1,50.1,47.7,89,71,53,29.94,29.79,17,4,23,0.00
2013-5-7,68.9,60.6,51.9,53.9,51.4,48.3,88,72,55,30.02,29.93,13,3,20,0.00
2013-5-8,70.1,55.6,48.0,54.8,49.0,45.8,94,80,57,30.11,30.02,6,1,12,0.00
2013-5-9,71.0,57.2,46.5,53.7,48.7,44.0,93,75,53,30.15,30.06,11,1,16,0.00
2013-5-10,74.0,58.0,47.4,57.1,50.0,44.5,91,76,53,30.17,30.07,7,1,12,0.00
2013-5-11,81.0,60.3,47.6,59.4,51.6,45.3,93,75,47,30.12,30.00,6,1,8,0.00
2013-5-12,82.0,63.0,47.4,61.1,51.1,45.5,93,69,31,30.12,30.00,9,1,14,0.00
2013-5-13,81.0,62.3,46.6,60.3,51.8,44.1,94,71,45,30.06,29.91,8,1,13,0.00
2013-5-14,77.9,61.2,49.9,56.4,50.2,44.6,90,69,40,29.97,29.88,8,1,13,0.00
2013-5-15,72.9,58.9,46.7,50.7,46.5,43.1,88,66,40,30.01,29.96,7,2,16,0.00
2013-5-16,72.8,61.0,53.7,55.8,50.0,45.2,82,68,49,30.01,29.93,10,2,14,0.00
2013-5-17,71.6,58.5,49.2,50.3,45.1,41.1,82,63,41,30.05,29.94,9,2,14,0.00
2013-5-18,74.6,59.8,43.1,53.7,47.5,39.9,94,66,41,30.11,30.04,9,2,22,0.00
2013-5-19,83.1,65.4,49.2,52.8,47.3,43.3,81,55,30,30.10,29.94,11,1,18,0.00
2013-5-20,89.7,66.9,49.1,57.4,47.3,39.7,86,55,19,29.98,29.88,15,1,21,0.00
2013-5-21,68.7,57.7,50.2,50.8,44.8,37.2,82,63,46,29.97,29.89,15,3,28,0.00
2013-5-22,66.5,54.9,47.0,41.8,36.5,29.3,69,51,33,30.01,29.88,12,3,24,0.00
2013-5-23,70.6,56.5,46.6,47.4,42.1,38.9,77,60,40,29.98,29.90,10,2,18,0.00
2013-5-24,72.0,56.2,43.5,48.9,43.1,39.3,86,63,42,29.98,29.91,9,2,20,0.00
2013-5-25,71.8,56.4,44.8,51.4,45.8,40.9,88,69,45,30.01,29.94,10,2,17,0.00
2013-5-26,72.6,61.1,52.9,53.3,50.1,46.6,85,68,48,30.10,30.01,10,2,18,0.00
2013-5-27,64.3,57.4,52.6,55.5,50.9,45.6,91,79,67,30.09,29.97,11,2,17,0.02
2013-5-28,72.8,61.3,53.6,56.9,52.4,46.5,95,75,53,29.98,29.89,8,2,17,0.01
2013-5-29,73.6,62.2,54.0,54.9,49.7,44.3,81,64,50,29.95,29.87,10,2,21,0.00
2013-5-30,76.7,61.2,46.5,52.5,46.8,42.8,89,62,36,29.97,29.90,8,2,14,0.00
2013-5-31,90.1,66.4,47.4,57.6,49.7,42.8,86,59,24,30.00,29.87,6,1,12,0.00
2013-6-1,91.3,70.0,49.7,59.1,50.5,43.1,81,53,33,29.91,29.73,7,1,10,0.00
2013-6-2,80.9,63.0,51.3,56.4,49.9,46.0,85,65,38,29.75,29.62,10,2,15,0.00
2013-6-3,63.2,56.8,50.7,51.8,49.6,47.5,90,77,66,29.84,29.68,20,6,35,0.00
2013-6-4,63.1,55.4,48.7,52.5,49.4,46.2,92,81,68,29.95,29.83,20,5,31,0.00
2013-6-5,69.2,57.3,50.5,54.3,50.1,47.1,89,77,58,29.98,29.89,9,2,13,0.00
2013-6-6,74.6,58.3,49.6,56.8,50.8,46.3,90,77,54,29.93,29.81,8,2,12,0.00
2013-6-7,84.3,63.4,49.9,62.4,53.7,47.6,92,73,47,29.87,29.68,7,1,12,0.00
2013-6-8,81.6,64.1,53.4,60.1,53.9,49.6,88,71,46,29.78,29.68,20,4,33,0.00
2013-6-9,62.9,57.5,54.8,54.5,52.5,51.6,90,83,72,29.87,29.78,15,6,30,0.00
2013-6-10,62.4,57.1,53.5,53.6,51.7,49.8,93,83,70,29.93,29.77,14,3,23,0.04
2013-6-11,76.0,62.1,53.5,58.0,52.4,44.0,88,72,44,29.97,29.86,8,2,13,0.00
2013-6-12,80.1,62.3,46.9,55.3,47.6,42.9,91,62,34,29.97,29.89,10,2,18,0.00
2013-6-13,80.3,63.3,47.1,54.0,47.1,41.2,83,58,33,30.07,29.97,11,2,16,0.00
2013-6-14,83.9,65.8,50.3,56.6,48.8,45.6,85,59,29,29.97,29.79,13,2,17,0.00
2013-6-15,71.9,57.5,47.4,54.9,49.0,44.3,91,75,52,29.97,29.81,9,2,13,0.00
2013-6-16,81.5,63.3,45.0,55.5,49.5,42.6,95,64,38,30.05,29.96,8,2,17,0.01
2013-6-17,76.5,63.0,50.1,57.2,51.6,45.6,86,68,50,30.06,30.00,10,2,20,0.00
2013-6-18,71.2,60.7,51.9,50.9,48.8,46.2,84,66,45,30.00,29.94,14,3,26,0.00
2013-6-19,75.4,62.3,51.7,52.0,47.5,44.3,80,60,41,30.03,29.97,11,3,24,0.00
2013-6-20,80.6,62.6,49.5,54.0,47.5,43.1,82,60,36,29.99,29.91,8,1,18,0.00
2013-6-21,83.1,64.5,46.5,56.4,48.8,42.7,88,60,33,29.95,29.88,9,1,13,0.00
2013-6-22,87.6,66.9,49.8,56.2,50.3,44.6,87,59,31,29.91,29.80,11,2,22,0.00
2013-6-23,66.6,60.4,56.5,58.4,54.9,51.6,90,82,74,29.84,29.79,12,3,18,0.00
2013-6-24,62.8,57.7,54.7,55.9,54.1,51.8,92,88,75,29.88,29.77,16,3,22,0.07
2013-6-25,61.2,59.5,57.0,59.0,57.5,54.7,95,93,91,29.96,29.85,22,7,30,1.66
2013-6-26,82.4,68.2,58.2,65.7,60.8,56.8,97,79,52,30.02,29.95,10,2,15,0.01
2013-6-27,89.0,71.0,56.1,66.2,59.4,54.4,95,71,38,30.06,29.97,6,1,10,0.00
2013-6-28,92.8,73.9,57.8,66.8,60.6,55.5,93,66,41,30.00,29.85,5,1,9,0.00
2013-6-29,96.8,75.1,57.4,66.3,58.4,53.6,87,60,29,29.88,29.75,9,1,13,0.00
2013-6-30,91.6,71.5,56.8,65.2,58.3,53.7,90,66,34,29.82,29.72,6,1,10,0.00
2013-7-1,88.4,69.8,56.4,64.7,58.1,53.5,91,69,43,29.81,29.76,6,1,9,0.00
2013-7-2,81.2,70.2,59.7,60.2,56.4,53.8,82,63,43,29.89,29.79,22,4,35,0.00
2013-7-3,91.8,70.4,56.7,64.7,58.0,53.5,90,68,41,29.88,29.72,8,1,14,0.00
2013-7-4,92.9,73.5,62.8,63.1,56.9,47.8,80,59,31,29.75,29.62,8,1,20,0.00
2013-7-5,70.6,62.1,52.8,56.0,52.4,48.6,86,71,59,29.74,29.67,8,2,13,0.00
2013-7-6,69.2,56.3,51.6,54.0,50.2,48.3,91,81,58,29.79,29.69,16,5,25,0.00
2013-7-7,73.5,59.9,50.9,56.1,51.5,47.8,91,75,47,29.84,29.75,10,3,16,0.00
2013-7-8,80.8,61.3,52.3,56.7,52.1,48.2,91,74,32,29.95,29.84,8,2,14,0.00
2013-7-9,88.2,65.1,50.8,61.8,55.0,48.6,93,73,40,30.01,29.89,5,1,8,0.00
2013-7-10,79.2,61.0,48.2,58.6,52.1,45.7,94,75,44,29.96,29.85,9,1,13,0.00
2013-7-11,70.5,57.3,50.6,56.2,50.9,47.3,91,80,60,29.93,29.83,8,2,12,0.00
2013-7-12,73.6,58.5,51.8,57.3,51.6,48.3,89,79,55,29.93,29.83,11,2,16,0.00
2013-7-13,74.9,60.2,47.7,57.4,51.7,45.8,93,75,51,29.93,29.86,9,1,13,0.00
2013-7-14,75.9,59.4,48.0,57.9,51.7,46.0,94,77,53,29.98,29.85,8,1,12,0.00
2013-7-15,68.3,56.7,49.6,54.6,50.6,47.1,94,81,61,29.91,29.81,12,3,20,0.00
2013-7-16,61.0,56.9,52.9,55.5,52.1,49.3,89,84,80,30.01,29.85,12,4,18,0.00
2013-7-17,75.3,61.9,53.3,58.8,54.2,49.9,89,77,56,30.07,29.99,8,2,12,0.00
2013-7-18,77.7,61.0,50.3,59.6,53.2,48.1,93,77,51,30.04,29.90,8,1,10,0.00
2013-7-19,78.3,61.3,50.3,60.2,53.5,48.1,93,77,53,29.93,29.78,8,1,12,0.00
2013-7-20,77.3,60.0,51.1,58.1,52.2,48.6,92,77,52,29.83,29.69,8,2,12,0.00
2013-7-21,78.3,63.0,51.5,55.5,52.2,48.7,91,70,43,29.85,29.73,21,4,31,0.00
2013-7-22,77.3,64.6,55.1,59.8,55.3,51.2,89,73,51,29.93,29.85,18,4,29,0.00
2013-7-23,76.9,65.2,57.2,59.5,55.9,53.1,87,73,49,29.97,29.91,8,1,14,0.00
2013-7-24,83.2,66.0,53.8,62.1,56.4,51.4,94,73,48,29.96,29.86,5,1,8,0.00
2013-7-25,76.7,62.7,53.4,59.3,54.0,50.2,89,74,54,30.00,29.90,7,1,12,0.00
2013-7-26,76.0,61.3,52.4,59.5,53.7,48.9,91,77,56,30.07,29.96,8,2,12,0.00
2013-7-27,75.4,60.6,52.9,58.6,53.2,50.0,91,78,55,30.01,29.82,9,2,14,0.00
2013-7-28,66.6,56.7,52.6,54.0,51.1,48.9,91,82,62,29.86,29.78,12,4,21,0.00
2013-7-29,62.4,56.4,53.0,53.9,51.5,49.8,89,84,73,30.00,29.82,17,6,26,0.00
2013-7-30,69.9,58.1,52.8,56.0,51.7,49.4,91,80,60,30.09,30.00,12,3,16,0.00
2013-7-31,76.4,59.6,50.9,57.7,51.8,48.4,92,77,48,30.07,29.96,10,2,14,0.00
2013-8-1,76.2,62.4,49.4,57.8,52.6,46.9,94,72,47,30.03,29.93,8,1,12,0.00
2013-8-2,79.5,61.4,49.2,58.1,52.3,47.0,94,74,48,29.96,29.85,8,1,13,0.00
2013-8-3,70.9,57.4,49.4,55.2,51.0,46.9,92,80,58,29.95,29.87,12,3,20,0.00
2013-8-4,70.2,57.8,51.3,55.7,51.3,48.5,90,80,60,29.99,29.91,10,2,15,0.00
2013-8-5,73.8,59.2,50.9,56.3,51.8,47.3,89,78,54,30.01,29.89,7,1,10,0.00
2013-8-6,72.8,59.2,50.7,57.3,52.2,47.3,89,79,58,30.02,29.95,11,2,16,0.00
2013-8-7,63.9,59.2,55.9,56.3,54.1,51.8,90,84,74,30.08,30.01,18,3,23,0.00
2013-8-8,73.3,61.2,52.1,57.8,54.2,48.9,93,79,54,30.01,29.91,11,2,17,0.00
2013-8-9,73.5,60.0,50.9,58.0,53.0,48.4,94,79,58,29.97,29.90,9,1,13,0.00
2013-8-10,77.8,62.9,55.6,60.0,55.2,52.2,91,77,54,30.02,29.96,9,1,13,0.00
2013-8-11,75.2,61.6,53.2,59.5,54.5,51.2,94,79,57,30.00,29.90,7,1,12,0.00
2013-8-12,75.3,59.6,50.6,59.1,53.1,48.7,93,80,55,29.98,29.90,8,1,12,0.00
2013-8-13,88.8,65.2,48.3,61.6,53.8,46.6,94,71,35,29.98,29.86,8,1,13,0.00
2013-8-14,85.4,65.5,50.8,60.5,54.8,48.0,91,71,36,29.95,29.86,8,1,13,0.00
2013-8-15,86.9,68.3,54.8,66.6,60.0,53.1,95,77,50,29.93,29.86,8,1,14,0.00
2013-8-16,86.0,68.0,56.3,63.7,57.5,51.4,94,72,43,29.95,29.89,8,1,12,0.00
2013-8-17,81.5,64.6,54.3,62.3,56.7,51.5,91,77,49,29.96,29.82,7,1,12,0.00
2013-8-18,93.0,68.0,53.6,65.7,58.0,51.6,94,73,39,29.87,29.74,7,1,9,0.00
2013-8-19,86.5,69.5,59.6,59.6,56.8,54.5,87,66,40,29.86,29.75,7,2,13,0.00
2013-8-20,75.2,62.8,56.9,56.6,54.6,51.0,91,76,44,29.87,29.78,16,4,25,0.00
2013-8-21,76.9,62.3,53.8,57.7,53.8,50.9,91,76,48,29.92,29.81,8,2,14,0.00
2013-8-22,78.4,62.2,53.0,58.6,53.3,49.9,91,74,49,29.96,29.86,7,1,12,0.00
2013-8-23,76.3,62.5,52.3,59.6,54.2,49.5,91,76,52,29.91,29.76,9,1,12,0.00
2013-8-24,83.6,65.2,51.7,60.7,55.7,49.4,93,74,45,29.86,29.80,8,1,16,0.00
2013-8-25,76.1,65.7,57.5,62.8,58.5,55.0,92,78,60,29.92,29.85,14,2,22,0.00
2013-8-26,80.3,65.8,58.2,60.8,55.1,49.9,86,70,44,29.98,29.87,9,1,13,0.00
2013-8-27,85.3,65.0,48.8,62.1,54.7,46.3,94,72,42,29.88,29.78,7,1,15,0.00
2013-8-28,84.1,66.7,54.0,65.1,58.5,52.0,94,77,52,29.91,29.82,10,1,14,0.00
2013-8-29,84.8,68.3,58.5,64.7,59.8,56.1,93,76,48,30.02,29.91,8,1,14,0.00
2013-8-30,89.9,69.9,57.0,64.4,58.7,53.9,95,71,40,30.01,29.87,7,1,12,0.00
2013-8-31,83.5,66.2,53.9,62.6,56.3,51.6,92,72,44,29.94,29.85,6,1,12,0.00
2013-9-1,82.4,67.2,57.0,60.7,56.7,52.4,86,70,45,29.92,29.84,9,1,12,0.00
2013-9-2,83.2,68.6,59.9,64.5,59.3,53.7,90,73,51,29.92,29.84,7,2,12,0.00
2013-9-3,80.5,66.7,55.1,58.1,54.9,51.6,90,68,42,29.96,29.90,9,2,20,0.00
2013-9-4,80.3,65.8,54.4,59.0,54.9,51.8,93,70,42,30.00,29.90,12,2,23,0.00
2013-9-5,80.3,66.5,54.5,57.3,53.9,51.7,93,67,41,29.97,29.91,9,2,20,0.00
2013-9-6,90.9,70.6,52.1,59.4,52.0,46.5,91,57,23,29.96,29.79,6,1,9,0.00
2013-9-7,91.7,70.8,55.3,61.5,53.5,47.6,83,58,28,29.85,29.75,9,1,12,0.00
2013-9-8,86.7,65.5,52.1,62.2,55.3,49.3,90,72,44,29.85,29.72,5,1,7,0.00
2013-9-9,86.1,64.9,52.0,62.4,55.5,49.6,93,74,45,29.79,29.66,6,0,9,0.00
2013-9-10,63.7,59.1,53.4,58.1,55.7,51.4,94,89,81,29.88,29.70,22,6,35,0.00
2013-9-11,67.0,62.7,60.5,58.4,57.3,56.3,90,83,73,29.97,29.87,14,4,21,0.00
2013-9-12,78.9,65.7,60.3,63.5,58.9,56.4,90,80,57,29.95,29.85,8,1,14,0.00
2013-9-13,79.7,66.8,55.4,61.2,56.1,51.6,87,70,48,29.87,29.72,8,1,13,0.00
2013-9-14,77.2,60.7,51.5,60.2,53.7,49.3,94,79,55,29.80,29.70,8,1,12,0.00
2013-9-15,80.9,63.4,51.1,60.0,54.8,48.8,95,76,47,29.83,29.75,8,1,16,0.00
2013-9-16,79.2,63.9,55.5,60.7,55.7,51.9,95,76,48,29.87,29.75,7,1,12,0.00
2013-9-17,73.4,63.4,55.2,56.2,52.6,50.1,89,69,51,29.86,29.79,12,2,24,0.00
2013-9-18,82.8,64.4,50.9,56.3,49.6,44.0,88,62,36,29.89,29.78,11,1,16,0.00
2013-9-19,86.1,65.1,48.3,58.8,48.5,43.9,86,60,25,29.84,29.70,8,1,13,0.00
2013-9-20,77.8,60.4,46.9,58.9,52.6,42.6,93,77,48,29.82,29.75,12,2,20,0.02
2013-9-21,67.6,59.9,55.3,58.7,55.1,49.8,94,85,63,29.87,29.77,8,1,12,0.12
2013-9-22,75.9,61.2,48.7,57.2,50.9,46.8,94,71,46,29.97,29.87,6,1,15,0.01
2013-9-23,85.4,67.2,52.4,58.5,52.6,47.1,87,62,32,30.00,29.90,6,0,12,0.00
2013-9-24,78.5,64.9,54.9,53.8,50.0,45.2,91,61,34,29.96,29.86,10,1,17,0.00
2013-9-25,69.4,61.5,54.0,49.3,46.0,39.9,69,57,46,29.90,29.80,13,2,25,0.00
2013-9-26,75.7,61.6,48.5,45.5,39.2,32.6,63,45,22,29.95,29.82,10,1,14,0.00
2013-9-27,83.5,64.8,50.0,41.0,34.4,28.8,57,35,17,30.07,29.95,5,0,9,0.00
2013-9-28,79.5,64.6,43.4,54.1,42.0,34.0,77,48,25,30.06,29.96,10,1,14,0.00
2013-9-29,76.3,70.0,54.6,60.3,53.5,24.4,92,60,31,30.07,30.02,11,2,17,0.00
2013-9-30,71.2,64.1,58.1,61.7,59.0,56.2,94,84,70,30.04,29.94,10,2,16,0.01
2013-10-1,72.9,62.8,49.7,59.0,49.5,42.4,80,63,48,29.99,29.88,6,1,12,0.00
2013-10-2,74.5,63.6,46.9,55.0,48.1,43.2,89,58,41,29.99,29.91,10,1,14,0.00
2013-10-3,74.3,67.0,53.0,44.2,39.8,34.2,55,38,25,30.06,29.92,11,1,20,0.00
2013-10-4,79.1,71.9,60.7,39.2,34.8,22.6,30,26,21,30.07,29.95,13,2,23,0.00
2013-10-5,81.8,70.5,53.6,43.0,35.6,21.4,53,28,20,30.17,30.07,8,1,12,0.00
2013-10-6,81.6,67.9,46.9,45.2,37.8,20.0,54,34,26,30.10,29.96,6,0,7,0.00
2013-10-7,79.8,68.4,47.8,49.1,41.0,25.6,61,38,28,29.97,29.83,6,0,9,0.00
2013-10-8,74.0,68.3,49.7,53.4,45.1,42.3,77,45,32,29.88,29.68,10,1,15,0.00
2013-10-9,69.1,64.1,51.8,48.1,44.4,42.6,78,49,43,29.73,29.61,10,1,15,0.00
2013-10-10,64.4,60.1,53.5,49.7,46.0,42.6,80,61,45,29.99,29.73,13,2,21,0.00
2013-10-11,65.5,59.4,46.2,51.1,48.5,35.8,88,67,58,30.07,29.95,6,1,9,0.00
2013-10-12,65.8,58.4,39.3,51.8,46.7,29.9,94,66,49,29.99,29.87,9,1,14,0.00
2013-10-13,71.1,63.7,50.1,53.7,45.3,43.3,86,52,39,30.04,29.89,9,1,13,0.00
2013-10-14,76.7,66.0,41.5,48.5,42.8,22.6,91,45,30,30.10,29.97,7,0,10,0.00
2013-10-15,79.1,70.9,46.9,43.9,41.2,38.0,74,35,24,30.02,29.91,4,0,7,0.00
2013-10-16,79.9,70.5,44.0,43.3,40.4,16.8,72,35,24,30.07,29.96,7,0,10,0.00
2013-10-17,80.3,70.3,44.4,47.6,40.9,16.0,63,36,27,30.06,29.92,5,0,8,0.00
2013-10-18,76.4,68.2,47.0,54.0,46.9,38.4,72,49,31,30.03,29.94,3,0,5,0.00
2013-10-19,80.2,67.3,44.5,51.9,48.6,30.6,90,53,31,30.06,29.95,6,0,8,0.00
2013-10-20,71.0,53.5,39.6,54.5,46.4,37.5,94,78,54,30.00,29.87,2,0,4,0.00
2013-10-21,70.7,52.0,39.5,53.3,45.4,37.2,96,80,48,30.00,29.88,5,0,8,0.01
2013-10-22,75.4,53.0,41.1,53.4,46.1,39.0,97,80,45,30.01,29.89,2,0,4,0.01
2013-10-23,68.9,50.5,40.5,53.4,45.4,38.4,97,84,54,29.97,29.86,6,0,9,0.01
2013-10-24,69.1,51.1,41.1,49.2,44.4,39.0,95,80,48,30.09,29.96,4,0,8,0.01
2013-10-25,74.0,55.2,41.2,52.2,45.7,39.6,97,74,36,30.15,30.05,2,0,4,0.01
2013-10-26,83.1,57.8,39.8,50.6,44.9,37.9,96,68,28,30.13,29.98,2,0,4,0.01
2013-10-27,68.3,51.9,39.6,49.2,43.4,37.5,94,75,42,30.00,29.62,8,1,22,0.00
2013-10-28,70.3,55.3,45.7,45.7,42.6,37.3,85,65,32,29.81,29.64,8,1,21,0.00
2013-10-29,63.3,52.9,44.8,45.6,43.8,40.6,87,72,49,30.04,29.81,5,0,12,0.00
2013-10-30,68.9,51.9,38.5,50.0,42.4,36.5,96,72,44,30.14,30.04,2,0,6,0.00
2013-10-31,69.3,48.3,38.6,49.1,41.1,36.2,94,78,47,30.17,30.10,2,0,4,0.00
2013-11-1,73.4,59.1,42.8,48.2,43.8,38.7,90,60,33,30.13,29.97,7,1,12,0.00
2013-11-2,73.4,55.8,43.2,53.2,44.1,38.1,85,66,42,29.99,29.86,5,0,12,0.00
2013-11-3,69.5,55.2,46.2,40.9,33.9,24.9,67,47,20,30.02,29.89,4,0,9,0.00
2013-11-4,71.3,56.6,41.3,38.5,32.3,24.6,70,43,23,30.05,29.89,10,1,15,0.00
2013-11-5,70.8,59.8,43.8,43.2,36.4,28.2,61,43,31,30.19,30.03,5,0,8,0.00
2013-11-6,68.7,58.5,44.8,42.0,38.5,29.8,69,49,36,30.24,30.13,9,1,13,0.00
2013-11-7,77.5,59.8,48.7,48.9,42.6,35.5,84,55,32,30.14,30.03,4,0,7,0.00
2013-11-8,72.5,55.2,42.1,55.2,46.7,31.7,99,76,43,30.06,29.92,6,0,10,0.01
2013-11-9,70.6,52.2,38.5,49.8,43.4,33.5,93,74,46,30.02,29.93,7,0,13,0.00
2013-11-10,62.8,51.7,42.1,50.2,45.2,39.7,94,79,59,30.10,30.01,11,1,16,0.01
2013-11-11,63.8,56.3,44.0,52.6,48.5,36.7,96,76,61,30.15,30.06,3,0,7,0.00
2013-11-12,68.1,58.6,51.5,52.3,46.6,42.3,80,65,55,30.25,30.13,3,0,5,0.00
2013-11-13,75.5,58.3,44.5,56.4,49.1,33.2,95,73,49,30.23,30.07,1,0,2,0.00
2013-11-14,60.9,52.4,45.3,53.8,46.0,33.4,96,80,43,30.09,29.85,7,0,20,0.00
2013-11-15,64.6,52.4,42.9,46.9,40.3,36.3,83,64,46,29.86,29.70,8,1,12,0.00
2013-11-16,64.5,52.1,41.5,48.9,43.4,36.5,88,73,47,29.91,29.75,8,0,13,0.00
2013-11-17,59.8,49.0,38.9,50.2,44.1,37.2,96,84,63,30.08,29.90,6,1,12,0.00
2013-11-18,58.2,49.1,37.9,48.9,44.3,36.3,97,84,69,30.14,30.07,12,1,15,0.00
2013-11-19,54.5,51.7,49.9,54.5,50.4,45.6,100,95,81,30.08,29.91,8,1,14,1.54
2013-11-20,56.6,52.7,46.6,55.6,51.8,44.1,100,97,90,29.92,29.83,5,0,6,1.12
2013-11-21,63.2,52.9,46.6,49.8,37.3,17.7,100,63,22,29.98,29.88,16,2,22,0.00
2013-11-22,70.5,59.2,48.5,28.3,22.4,7.2,38,25,14,30.01,29.88,17,2,25,0.00
2013-11-23,68.5,52.2,39.9,37.8,32.3,21.8,76,48,28,30.09,29.94,6,0,10,0.00
2013-11-24,63.8,46.7,35.9,44.2,37.4,32.2,92,72,43,30.24,30.08,3,0,5,0.00
2013-11-25,61.2,48.1,35.6,46.4,40.2,33.1,95,75,55,30.32,30.23,7,0,10,0.00
2013-11-26,65.1,50.8,45.1,44.5,40.3,38.1,81,68,45,30.25,30.03,2,0,4,0.00
2013-11-27,66.8,52.7,44.7,47.9,42.6,38.9,81,69,48,30.03,29.83,1,0,4,0.00
2013-11-28,68.7,55.6,46.8,47.1,41.3,37.4,71,60,40,30.05,29.85,4,0,5,0.00
2013-11-29,68.1,51.1,39.3,47.1,40.8,36.8,92,70,38,30.19,30.05,4,0,5,0.00
2013-11-30,68.1,52.4,40.2,53.3,43.3,35.6,93,73,41,30.26,30.17,3,0,5,0.00
2013-12-1,65.5,50.8,38.2,50.4,42.7,35.8,94,75,49,30.33,30.19,2,0,4,0.00
2013-12-2,63.4,50.8,38.6,52.5,45.9,36.5,96,84,62,30.21,29.93,7,0,13,0.00
2013-12-3,53.7,48.6,39.2,52.0,39.9,25.6,95,72,54,29.93,29.83,9,0,14,0.00
2013-12-4,50.7,39.2,28.7,31.4,25.5,20.1,77,59,38,30.08,29.93,5,0,8,0.00
2013-12-5,49.8,35.4,22.7,30.3,22.2,15.9,79,61,35,30.15,30.07,5,0,8,0.00
2013-12-6,48.4,39.6,25.9,45.9,32.8,23.1,93,78,52,30.19,29.89,11,1,21,0.86
2013-12-7,48.7,41.9,35.7,41.7,30.7,27.7,90,65,47,30.25,29.90,10,1,20,0.08
2013-12-8,44.4,34.2,25.8,32.6,24.9,16.1,91,71,46,30.32,30.22,8,1,12,0.00
2013-12-9,47.0,37.4,22.8,26.3,22.8,17.3,86,58,39,30.42,30.31,10,1,15,0.00
2013-12-10,51.1,42.0,27.3,31.2,28.1,14.3,89,59,42,30.40,30.20,9,1,14,0.00
2013-12-11,53.9,47.0,32.1,34.0,30.4,16.6,82,53,41,30.25,30.17,10,1,15,0.00
2013-12-12,58.4,50.8,36.0,37.7,34.2,18.2,83,53,40,30.26,30.14,7,1,10,0.00
2013-12-13,57.6,52.2,33.7,46.3,40.8,31.7,94,66,52,30.32,30.21,3,0,5,0.00
2013-12-14,58.7,55.6,36.5,46.3,41.8,34.6,93,60,46,30.39,30.29,10,1,14,0.00
2013-12-15,59.7,52.7,41.4,47.1,38.4,33.5,81,59,46,30.35,30.22,10,1,13,0.00
2013-12-16,65.1,56.5,43.2,40.3,37.7,36.1,77,50,36,30.23,30.10,6,1,12,0.00
2013-12-17,63.6,55.6,47.7,43.7,40.3,37.6,72,57,45,30.17,30.01,4,0,8,0.00
2013-12-18,59.3,55.2,42.3,46.9,43.9,36.5,82,66,56,30.01,29.73,6,0,8,0.00
2013-12-19,61.3,54.5,45.9,46.4,40.0,33.1,73,59,35,29.92,29.70,10,1,15,0.00
2013-12-20,59.4,52.3,33.6,39.1,36.5,19.3,72,55,42,30.00,29.91,5,0,6,0.00
2013-12-21,60.8,53.4,43.4,48.9,43.7,32.2,93,70,59,30.06,29.94,4,0,8,0.00
2013-12-22,62.7,54.8,39.1,47.7,42.2,31.8,94,64,43,30.26,30.06,8,1,10,0.00
2013-12-23,61.7,55.9,39.6,42.4,41.0,36.3,89,58,47,30.38,30.26,7,1,12,0.00
2013-12-24,68.5,59.4,39.2,53.1,45.7,35.5,94,62,45,30.32,30.17,4,0,5,0.00
2013-12-25,68.3,58.5,40.2,52.9,43.4,29.9,86,58,44,30.29,30.18,9,1,15,0.00
2013-12-26,64.8,58.7,41.3,42.4,40.7,35.9,83,52,37,30.24,30.15,8,1,12,0.00
2013-12-27,61.8,55.0,40.9,51.1,39.6,31.8,82,57,47,30.23,30.11,4,0,8,0.00
2013-12-28,61.8,54.2,35.6,41.1,37.5,32.4,89,54,39,30.13,30.00,3,0,4,0.00
2013-12-29,62.8,55.7,37.3,35.6,32.7,28.5,72,42,31,30.16,30.07,10,1,14,0.00
2013-12-30,61.3,54.7,40.6,42.8,38.4,20.0,75,55,43,30.24,30.16,6,0,8,0.00
2013-12-31,60.8,54.1,37.9,42.3,39.0,24.8,89,58,39,30.26,30.13,5,0,7,0.00
2014-1-1,62.4,54.8,38.1,45.0,40.8,33.8,86,60,46,30.20,30.10,2,0,4,0.00
2014-1-2,54.9,54.9,54.9,41.7,41.7,41.7,61,61,61,30.14,30.13,0,0,0,0.00